Notre Dame — FHST — position and weather

sailwx.info

Track history (hours):
 
Tides and Currents Weather Stations Pressure Air Temp Water Temp Dewpoint Dewpoint Depression Visibility Wind Speed Wind Dir Waves Ship Positions

Notre Dame

Last reported at 2018-Jun-25 12:38 UTC. Time now 2018-Jun-25 17:33 UTC.
Position N 47°38' W 005°45'.

Length 24 m; draft 3.4 m.

Type: Fishing. MMSI: 227820000.

Date/timePositionNaut miles runAvg speedWind from/ knotsBaromVisibWave heightAir tempDewpointWater temp
2018-Jun-25 12:38N 47°38' W 005°45'2 1.8
2018-Jun-25 11:43N 47°38' W 005°42'1 0.2
2018-Jun-25 08:53N 47°38' W 005°41'1 2.8
2018-Jun-25 08:28N 47°37' W 005°40'1 0.5
2018-Jun-25 05:46N 47°37' W 005°38'1 1.8
2018-Jun-25 05:23N 47°37' W 005°39'1 2.5
2018-Jun-25 05:00N 47°37' W 005°41'1 1.9
2018-Jun-25 04:30N 47°37' W 005°42'1 2.2
2018-Jun-25 03:54N 47°36' W 005°44'1 2.2
2018-Jun-25 03:23N 47°36' W 005°42'1 1.9
2018-Jun-25 03:00N 47°35' W 005°42'1 0.0
2018-Jun-24 07:53N 47°36' W 005°42'2 1.5
2018-Jun-24 06:43N 47°35' W 005°41'1 1.8
2018-Jun-24 05:58N 47°35' W 005°43'7 0.2
2018-Jun-22 21:55N 47°35' W 005°32'3 7.6
2018-Jun-22 21:31N 47°35' W 005°28'6 4.9
2018-Jun-22 20:21N 47°34' W 005°36'3 8.0
2018-Jun-22 19:58N 47°34' W 005°31'88 3.8
2018-Jun-21 20:48N 46°25' W 004°11'0 0.4
2018-Jun-21 20:25N 46°25' W 004°11'0 0.5
2018-Jun-21 19:42N 46°25' W 004°11'1 1.8
2018-Jun-21 19:21N 46°24' W 004°12'5 0.6
2018-Jun-21 11:20N 46°20' W 004°12'2 0.8
2018-Jun-21 09:22N 46°21' W 004°10'3 2.1
2018-Jun-21 08:04N 46°18' W 004°12'1 0.5
2018-Jun-21 06:25N 46°19' W 004°12'1 2.1
2018-Jun-21 06:00N 46°18' W 004°12'1 0.9
2018-Jun-21 05:15N 46°19' W 004°12'1 0.8
2018-Jun-21 04:20N 46°18' W 004°13'1 2.3
2018-Jun-21 04:00N 46°19' W 004°13'1 1.9
2018-Jun-21 03:30N 46°18' W 004°12'0 0.7
2018-Jun-21 02:51N 46°18' W 004°11'2 3.3
2018-Jun-21 02:08N 46°20' W 004°11'0 0.5
2018-Jun-21 01:51N 46°20' W 004°11'1 3.3
2018-Jun-21 01:28N 46°20' W 004°13'2 4.3
2018-Jun-21 01:00N 46°19' W 004°16'4 7.3
2018-Jun-21 00:28N 46°23' W 004°13'3 6.2
2018-Jun-21 00:00N 46°20' W 004°14'1 1.5
2018-Jun-20 23:30N 46°20' W 004°13'59 7.9
2018-Jun-20 16:04N 45°36' W 003°17'2 9.8
2018-Jun-20 15:54N 45°35' W 003°16'4 9.8
2018-Jun-20 15:29N 45°31' W 003°12'5 9.7
2018-Jun-20 15:00N 45°28' W 003°07'10 9.6
2018-Jun-20 13:55N 45°20' W 002°58'4 9.5
2018-Jun-20 13:30N 45°17' W 002°54'6 9.4
2018-Jun-20 12:53N 45°13' W 002°48'8 7.8
2018-Jun-20 11:52N 45°08' W 002°40'1 2.8
2018-Jun-20 11:30N 45°08' W 002°39'1 1.6
2018-Jun-20 10:57N 45°08' W 002°40'6 0.4
2018-Jun-19 20:16N 45°08' W 002°49'1 2.0
2018-Jun-19 20:00N 45°08' W 002°49'1 2.0
2018-Jun-19 19:30N 45°07' W 002°48'1 2.2
2018-Jun-19 19:00N 45°06' W 002°48'1 1.4
2018-Jun-19 18:30N 45°06' W 002°48'1 1.2
2018-Jun-19 18:00N 45°07' W 002°48'1 2.6
2018-Jun-19 17:30N 45°06' W 002°47'2 3.2
2018-Jun-19 17:00N 45°04' W 002°47'0 1.0
2018-Jun-19 16:30N 45°04' W 002°47'3 0.7
2018-Jun-19 11:52N 45°06' W 002°44'5 0.6
2018-Jun-19 03:56N 45°08' W 002°50'1 2.3
2018-Jun-19 03:23N 45°09' W 002°51'1 2.4
2018-Jun-19 03:00N 45°09' W 002°52'61 8.8
2018-Jun-18 20:01N 46°07' W 003°22'1 9.4
2018-Jun-18 19:55N 46°08' W 003°23'5 9.4
2018-Jun-18 19:23N 46°13' W 003°25'9 9.5
2018-Jun-18 18:27N 46°21' W 003°29'78 8.9
2018-Jun-18 09:43N 47°35' W 004°06'12 8.9
2018-Jun-18 08:25N 47°46' W 004°10'4 8.1
2018-Jun-18 07:58N 47°49' W 004°08'  
Track history (hours):
 
Tides and Currents Weather Stations Pressure Air Temp Water Temp Dewpoint Dewpoint Depression Visibility Wind Speed Wind Dir Waves Ship Positions

Notre Dame

Last reported at 2018-Jun-25 12:38 UTC. Time now 2018-Jun-25 17:33 UTC.
Position N 47°38' W 005°45'.

Length 24 m; draft 3.4 m.

Type: Fishing. MMSI: 227820000.

Date/timePositionNaut miles runAvg speedWind from/ knotsBaromVisibWave heightAir tempDewpointWater temp
2018-Jun-25 12:38N 47°38' W 005°45'2 1.8
2018-Jun-25 11:43N 47°38' W 005°42'1 0.2
2018-Jun-25 08:53N 47°38' W 005°41'1 2.8
2018-Jun-25 08:28N 47°37' W 005°40'1 0.5
2018-Jun-25 05:46N 47°37' W 005°38'1 1.8
2018-Jun-25 05:23N 47°37' W 005°39'1 2.5
2018-Jun-25 05:00N 47°37' W 005°41'1 1.9
2018-Jun-25 04:30N 47°37' W 005°42'1 2.2
2018-Jun-25 03:54N 47°36' W 005°44'1 2.2
2018-Jun-25 03:23N 47°36' W 005°42'1 1.9
2018-Jun-25 03:00N 47°35' W 005°42'1 0.0
2018-Jun-24 07:53N 47°36' W 005°42'2 1.5
2018-Jun-24 06:43N 47°35' W 005°41'1 1.8
2018-Jun-24 05:58N 47°35' W 005°43'7 0.2
2018-Jun-22 21:55N 47°35' W 005°32'3 7.6
2018-Jun-22 21:31N 47°35' W 005°28'6 4.9
2018-Jun-22 20:21N 47°34' W 005°36'3 8.0
2018-Jun-22 19:58N 47°34' W 005°31'88 3.8
2018-Jun-21 20:48N 46°25' W 004°11'0 0.4
2018-Jun-21 20:25N 46°25' W 004°11'0 0.5
2018-Jun-21 19:42N 46°25' W 004°11'1 1.8
2018-Jun-21 19:21N 46°24' W 004°12'5 0.6
2018-Jun-21 11:20N 46°20' W 004°12'2 0.8
2018-Jun-21 09:22N 46°21' W 004°10'3 2.1
2018-Jun-21 08:04N 46°18' W 004°12'1 0.5
2018-Jun-21 06:25N 46°19' W 004°12'1 2.1
2018-Jun-21 06:00N 46°18' W 004°12'1 0.9
2018-Jun-21 05:15N 46°19' W 004°12'1 0.8
2018-Jun-21 04:20N 46°18' W 004°13'1 2.3
2018-Jun-21 04:00N 46°19' W 004°13'1 1.9
2018-Jun-21 03:30N 46°18' W 004°12'0 0.7
2018-Jun-21 02:51N 46°18' W 004°11'2 3.3
2018-Jun-21 02:08N 46°20' W 004°11'0 0.5
2018-Jun-21 01:51N 46°20' W 004°11'1 3.3
2018-Jun-21 01:28N 46°20' W 004°13'2 4.3
2018-Jun-21 01:00N 46°19' W 004°16'4 7.3
2018-Jun-21 00:28N 46°23' W 004°13'3 6.2
2018-Jun-21 00:00N 46°20' W 004°14'1 1.5
2018-Jun-20 23:30N 46°20' W 004°13'59 7.9
2018-Jun-20 16:04N 45°36' W 003°17'2 9.8
2018-Jun-20 15:54N 45°35' W 003°16'4 9.8
2018-Jun-20 15:29N 45°31' W 003°12'5 9.7
2018-Jun-20 15:00N 45°28' W 003°07'10 9.6
2018-Jun-20 13:55N 45°20' W 002°58'4 9.5
2018-Jun-20 13:30N 45°17' W 002°54'6 9.4
2018-Jun-20 12:53N 45°13' W 002°48'8 7.8
2018-Jun-20 11:52N 45°08' W 002°40'1 2.8
2018-Jun-20 11:30N 45°08' W 002°39'1 1.6
2018-Jun-20 10:57N 45°08' W 002°40'6 0.4
2018-Jun-19 20:16N 45°08' W 002°49'1 2.0
2018-Jun-19 20:00N 45°08' W 002°49'1 2.0
2018-Jun-19 19:30N 45°07' W 002°48'1 2.2
2018-Jun-19 19:00N 45°06' W 002°48'1 1.4
2018-Jun-19 18:30N 45°06' W 002°48'1 1.2
2018-Jun-19 18:00N 45°07' W 002°48'1 2.6
2018-Jun-19 17:30N 45°06' W 002°47'2 3.2
2018-Jun-19 17:00N 45°04' W 002°47'0 1.0
2018-Jun-19 16:30N 45°04' W 002°47'3 0.7
2018-Jun-19 11:52N 45°06' W 002°44'5 0.6
2018-Jun-19 03:56N 45°08' W 002°50'1 2.3
2018-Jun-19 03:23N 45°09' W 002°51'1 2.4
2018-Jun-19 03:00N 45°09' W 002°52'61 8.8
2018-Jun-18 20:01N 46°07' W 003°22'1 9.4
2018-Jun-18 19:55N 46°08' W 003°23'5 9.4
2018-Jun-18 19:23N 46°13' W 003°25'9 9.5
2018-Jun-18 18:27N 46°21' W 003°29'78 8.9
2018-Jun-18 09:43N 47°35' W 004°06'12 8.9
2018-Jun-18 08:25N 47°46' W 004°10'4 8.1
2018-Jun-18 07:58N 47°49' W 004°08'  

Dump ship's entire track history